createdAt,value
2023-04-08T00:00:20.797Z,97001.25
2023-04-08T00:02:48.624Z,97009.09
2023-04-08T00:05:17.655Z,97001.53
2023-04-08T00:07:45.483Z,97013.00
2023-04-08T00:10:13.108Z,97002.63
2023-04-08T00:12:40.873Z,97004.16
2023-04-08T00:15:08.883Z,97007.75
2023-04-08T00:17:36.766Z,97005.94
2023-04-08T00:20:05.734Z,97012.44
2023-04-08T00:22:34.708Z,97005.56
2023-04-08T00:25:02.864Z,97010.78
2023-04-08T00:27:30.466Z,97009.44
2023-04-08T00:30:00.055Z,97006.13
2023-04-08T00:32:28.347Z,97005.47
2023-04-08T00:34:56.336Z,97011.13
2023-04-08T00:37:24.966Z,97010.31
2023-04-08T00:39:54.242Z,97017.88
2023-04-08T00:42:22.154Z,97013.75
2023-04-08T00:44:49.838Z,97014.88
2023-04-08T00:47:17.644Z,97019.16
2023-04-08T00:49:45.482Z,97013.63
2023-04-08T00:52:13.119Z,97017.34
2023-04-08T00:54:40.892Z,97014.03
2023-04-08T00:57:09.881Z,97017.78
2023-04-08T00:59:37.720Z,97021.66
2023-04-08T01:02:13.801Z,97015.88
2023-04-08T01:04:46.153Z,97021.94
2023-04-08T01:07:16.819Z,97004.31
2023-04-08T01:09:47.115Z,97009.44
2023-04-08T01:12:19.711Z,97013.31
2023-04-08T01:14:48.210Z,97010.44
2023-04-08T01:17:16.387Z,97006.88
2023-04-08T01:19:44.867Z,97019.72
2023-04-08T01:22:18.515Z,97009.69
2023-04-08T01:24:46.766Z,97010.66
2023-04-08T01:27:16.231Z,97012.16
2023-04-08T01:29:44.655Z,97014.81
2023-04-08T01:32:13.464Z,97016.59
2023-04-08T01:34:41.970Z,97011.63
2023-04-08T01:37:09.948Z,97013.59
2023-04-08T01:39:38.346Z,97007.38
2023-04-08T01:42:06.171Z,97012.06
2023-04-08T01:44:36.310Z,97010.41
2023-04-08T01:47:04.677Z,97013.69
2023-04-08T01:49:32.602Z,97008.06
2023-04-08T01:52:01.592Z,97007.78
2023-04-08T01:54:29.242Z,97012.59
2023-04-08T01:56:58.454Z,97017.16
2023-04-08T01:59:31.225Z,97011.09
2023-04-08T02:02:00.640Z,97009.03
2023-04-08T02:04:28.611Z,97015.66
2023-04-08T02:06:57.206Z,97015.91
2023-04-08T02:09:26.210Z,97009.00
2023-04-08T02:11:53.929Z,97016.34
2023-04-08T02:14:23.209Z,97015.38
2023-04-08T02:16:54.802Z,97016.34
2023-04-08T02:19:27.168Z,97008.19
2023-04-08T02:21:58.696Z,97009.97
2023-04-08T02:24:27.298Z,97016.47
2023-04-08T02:26:56.342Z,97021.00
2023-04-08T02:29:25.152Z,97017.81
2023-04-08T02:31:53.241Z,97008.59
2023-04-08T02:34:22.661Z,97024.88
2023-04-08T02:36:52.208Z,97019.50
2023-04-08T02:39:22.371Z,97008.63
2023-04-08T02:41:50.070Z,97014.41
2023-04-08T02:44:17.655Z,97020.72
2023-04-08T02:46:45.340Z,97021.81
2023-04-08T02:49:13.125Z,97020.44
2023-04-08T02:51:41.043Z,97023.31
2023-04-08T02:54:09.996Z,97024.00
2023-04-08T02:56:37.561Z,97028.44
2023-04-08T02:59:05.453Z,97024.84
2023-04-08T03:01:33.074Z,97025.69
2023-04-08T03:04:00.799Z,97027.75
2023-04-08T03:06:28.387Z,97025.81
2023-04-08T03:08:55.923Z,97004.19
2023-04-08T03:11:24.926Z,97025.13
2023-04-08T03:13:52.475Z,97020.59
2023-04-08T03:16:20.085Z,97026.66
2023-04-08T03:18:47.748Z,97024.84
2023-04-08T03:21:15.798Z,97028.31
2023-04-08T03:23:43.460Z,97020.88
2023-04-08T03:26:11.083Z,97025.41
2023-04-08T03:28:40.520Z,97026.38
2023-04-08T03:31:08.413Z,97021.84
2023-04-08T03:33:36.492Z,97026.78
2023-04-08T03:36:04.287Z,97035.47
2023-04-08T03:38:32.190Z,97035.31
2023-04-08T03:40:59.885Z,97033.97
2023-04-08T03:43:27.975Z,97020.19
2023-04-08T03:45:57.335Z,97029.41
2023-04-08T03:48:25.038Z,97029.13
2023-04-08T03:50:52.809Z,97034.38
2023-04-08T03:53:20.782Z,97036.69
2023-04-08T03:55:50.597Z,97035.19
2023-04-08T03:58:19.479Z,97026.94
2023-04-08T04:00:47.216Z,97039.16
2023-04-08T04:03:16.518Z,97041.09
2023-04-08T04:05:44.327Z,97036.81
2023-04-08T04:08:12.088Z,97046.34
2023-04-08T04:10:39.863Z,97042.75
2023-04-08T04:13:07.955Z,97044.97
2023-04-08T04:15:39.557Z,97045.38
2023-04-08T04:18:07.449Z,97047.69
2023-04-08T04:20:38.207Z,97040.69
2023-04-08T04:23:05.788Z,97043.31
2023-04-08T04:25:33.364Z,97053.50
2023-04-08T04:28:01.727Z,97043.84
2023-04-08T04:30:29.663Z,97035.88
2023-04-08T04:32:57.646Z,97052.38
2023-04-08T04:35:25.385Z,97043.28
2023-04-08T04:37:54.318Z,97047.69
2023-04-08T04:40:21.912Z,97054.59
2023-04-08T04:42:49.871Z,97056.22
2023-04-08T04:45:17.615Z,97058.00
2023-04-08T04:47:45.358Z,97055.25
2023-04-08T04:50:12.983Z,97062.44
2023-04-08T04:52:41.458Z,97064.22
2023-04-08T04:55:11.026Z,97073.59
2023-04-08T04:57:38.585Z,97073.72
2023-04-08T05:00:08.305Z,97077.19
2023-04-08T05:02:36.129Z,97085.31
2023-04-08T05:05:04.018Z,97091.25
2023-04-08T05:07:31.878Z,97089.19
2023-04-08T05:09:59.481Z,97091.09
2023-04-08T05:12:29.275Z,97093.59
2023-04-08T05:14:56.866Z,97097.19
2023-04-08T05:17:24.410Z,97099.66
2023-04-08T05:19:52.050Z,97100.72
2023-04-08T05:22:19.643Z,97102.09
2023-04-08T05:24:47.205Z,97106.63
2023-04-08T05:27:14.785Z,97109.91
2023-04-08T05:29:44.276Z,97114.03
2023-04-08T05:32:11.876Z,97116.91
2023-04-08T05:34:39.544Z,97126.69
2023-04-08T05:37:07.151Z,97111.19
2023-04-08T05:39:34.744Z,97127.88
2023-04-08T05:42:02.379Z,97134.06
2023-04-08T05:44:29.942Z,97143.81
2023-04-08T05:47:00.293Z,97155.25
2023-04-08T05:49:28.214Z,97149.84
2023-04-08T05:51:56.090Z,97155.34
2023-04-08T05:54:23.666Z,97155.56
2023-04-08T05:56:51.314Z,97152.94
2023-04-08T05:59:18.916Z,97161.38
2023-04-08T06:01:46.560Z,97154.94
2023-04-08T06:04:17.597Z,97166.72
2023-04-08T06:06:45.753Z,97161.09
2023-04-08T06:09:13.508Z,97175.19
2023-04-08T06:11:41.233Z,97172.75
2023-04-08T06:14:08.870Z,97183.75
2023-04-08T06:16:36.474Z,97185.72
2023-04-08T06:19:10.218Z,97184.19
2023-04-08T06:21:39.193Z,97191.03
2023-04-08T06:24:07.266Z,97200.63
2023-04-08T06:26:34.866Z,97190.38
2023-04-08T06:29:03.253Z,97200.88
2023-04-08T06:31:30.854Z,97199.69
2023-04-08T06:33:59.271Z,97187.53
2023-04-08T06:36:28.290Z,97207.72
2023-04-08T06:38:57.221Z,97221.69
2023-04-08T06:41:24.760Z,97218.38
2023-04-08T06:43:52.315Z,97227.84
2023-04-08T06:46:19.943Z,97227.97
2023-04-08T06:48:47.485Z,97224.47
2023-04-08T06:51:15.141Z,97230.34
2023-04-08T06:53:42.701Z,97229.97
2023-04-08T06:56:11.600Z,97222.88
2023-04-08T06:58:39.329Z,97225.66
2023-04-08T07:01:07.111Z,97227.06
2023-04-08T07:03:34.759Z,97231.75
2023-04-08T07:06:04.630Z,97227.00
2023-04-08T07:08:32.262Z,97230.75
2023-04-08T07:10:59.906Z,97229.78
2023-04-08T07:13:29.420Z,97233.25
2023-04-08T07:15:57.090Z,97233.38
2023-04-08T07:18:26.197Z,97232.47
2023-04-08T07:20:54.607Z,97226.56
2023-04-08T07:23:22.793Z,97231.38
2023-04-08T07:25:50.368Z,97222.69
2023-04-08T07:28:17.986Z,97222.31
2023-04-08T07:30:47.070Z,97226.31
2023-04-08T07:33:15.812Z,97230.63
2023-04-08T07:35:43.470Z,97227.88
2023-04-08T07:38:12.015Z,97222.41
2023-04-08T07:40:39.647Z,97225.16
2023-04-08T07:43:09.072Z,97228.22
2023-04-08T07:45:36.628Z,97231.13
2023-04-08T07:48:05.957Z,97221.88
2023-04-08T07:50:33.598Z,97227.81
2023-04-08T07:53:01.164Z,97221.72
2023-04-08T07:55:28.734Z,97237.72
2023-04-08T07:57:56.437Z,97232.09
2023-04-08T08:00:24.413Z,97227.66
2023-04-08T08:02:52.332Z,97235.63
2023-04-08T08:05:21.715Z,97240.91
2023-04-08T08:07:50.467Z,97237.47
2023-04-08T08:10:18.087Z,97251.13
2023-04-08T08:12:45.703Z,97250.28
2023-04-08T08:15:13.553Z,97252.34
2023-04-08T08:17:41.352Z,97251.38
2023-04-08T08:20:10.643Z,97250.03
2023-04-08T08:22:50.838Z,97248.47
2023-04-08T08:25:26.084Z,97252.78
2023-04-08T08:27:55.376Z,97256.44
2023-04-08T08:30:23.027Z,97250.88
2023-04-08T08:32:52.083Z,97254.25
2023-04-08T08:35:19.719Z,97258.25
2023-04-08T08:37:48.990Z,97258.81
2023-04-08T08:40:16.720Z,97261.84
2023-04-08T08:42:51.433Z,97252.75
2023-04-08T08:45:19.507Z,97264.63
2023-04-08T08:47:49.703Z,97266.00
2023-04-08T08:50:18.675Z,97269.03
2023-04-08T08:52:51.370Z,97272.09
2023-04-08T08:55:35.051Z,97278.97
2023-04-08T08:58:08.665Z,97275.25
2023-04-08T09:00:37.697Z,97266.00
2023-04-08T09:03:18.943Z,97263.53
2023-04-08T09:05:51.429Z,97276.91
2023-04-08T09:08:27.618Z,97273.72
2023-04-08T09:10:55.295Z,97282.81
2023-04-08T09:13:23.495Z,97282.81
2023-04-08T09:16:05.083Z,97279.22
2023-04-08T09:18:33.231Z,97285.03
2023-04-08T09:21:02.211Z,97286.94
2023-04-08T09:23:41.745Z,97286.34
2023-04-08T09:26:10.782Z,97294.97
2023-04-08T09:28:39.136Z,97294.56
2023-04-08T09:31:22.464Z,97296.78
2023-04-08T09:33:50.551Z,97303.50
2023-04-08T09:36:18.414Z,97301.56
2023-04-08T09:38:48.137Z,97304.72
2023-04-08T09:41:16.716Z,97302.25
2023-04-08T09:43:49.408Z,97303.47
2023-04-08T09:46:19.237Z,97299.16
2023-04-08T09:49:03.778Z,97301.63
2023-04-08T09:51:35.150Z,97298.47
2023-04-08T09:54:04.952Z,97293.84
2023-04-08T09:56:40.823Z,97284.31
2023-04-08T09:59:12.253Z,97293.81
2023-04-08T10:01:41.407Z,97288.06
2023-04-08T10:04:11.202Z,97293.19
2023-04-08T10:06:39.535Z,97290.72
2023-04-08T10:09:08.789Z,97290.41
2023-04-08T10:11:37.167Z,97298.06
2023-04-08T10:14:04.817Z,97296.50
2023-04-08T10:16:32.609Z,97300.03
2023-04-08T10:19:00.233Z,97296.59
2023-04-08T10:21:43.318Z,97296.84
2023-04-08T10:24:12.578Z,97293.16
2023-04-08T10:26:41.877Z,97296.00
2023-04-08T10:29:33.828Z,97296.09
2023-04-08T10:32:02.852Z,97300.84
2023-04-08T10:34:30.918Z,97295.50
2023-04-08T10:37:02.011Z,97302.09
2023-04-08T10:39:32.380Z,97305.41
2023-04-08T10:42:02.655Z,97308.09
2023-04-08T10:44:30.241Z,97306.41
2023-04-08T10:46:58.074Z,97302.16
2023-04-08T10:49:34.167Z,97307.22
2023-04-08T10:52:02.242Z,97306.63
2023-04-08T10:54:31.151Z,97311.59
2023-04-08T10:56:59.852Z,97308.09
2023-04-08T10:59:32.151Z,97310.28
2023-04-08T11:02:00.470Z,97308.34
2023-04-08T11:04:28.391Z,97306.81
2023-04-08T11:06:56.072Z,97302.63
2023-04-08T11:09:23.653Z,97311.00
2023-04-08T11:11:53.646Z,97306.78
2023-04-08T11:14:22.457Z,97312.28
2023-04-08T11:16:50.295Z,97313.03
2023-04-08T11:19:18.059Z,97291.91
2023-04-08T11:21:45.633Z,97303.31
2023-04-08T11:24:14.526Z,97306.06
2023-04-08T11:26:42.720Z,97312.53
2023-04-08T11:29:14.267Z,97310.13
2023-04-08T11:31:42.757Z,97311.34
2023-04-08T11:34:10.755Z,97309.19
2023-04-08T11:36:41.624Z,97313.25
2023-04-08T11:39:11.568Z,97302.50
2023-04-08T11:41:40.374Z,97301.78
2023-04-08T11:44:08.303Z,97309.19
2023-04-08T11:46:37.705Z,97304.81
2023-04-08T11:49:07.675Z,97307.16
2023-04-08T11:51:37.840Z,97303.53
2023-04-08T11:54:06.537Z,97303.63
2023-04-08T11:56:45.793Z,97306.38
2023-04-08T11:59:13.364Z,97304.97
2023-04-08T12:01:42.244Z,97312.91
2023-04-08T12:04:12.743Z,97319.97
2023-04-08T12:06:43.434Z,97319.69
2023-04-08T12:09:11.122Z,97314.28
2023-04-08T12:11:38.648Z,97322.53
2023-04-08T12:14:06.203Z,97318.56
2023-04-08T12:16:33.863Z,97317.56
2023-04-08T12:19:02.795Z,97323.84
2023-04-08T12:21:30.473Z,97333.25
2023-04-08T12:23:58.033Z,97334.94
2023-04-08T12:26:25.640Z,97329.19
2023-04-08T12:28:53.231Z,97339.38
2023-04-08T12:31:21.630Z,97337.44
2023-04-08T12:33:49.414Z,97340.28
2023-04-08T12:36:18.464Z,97343.81
2023-04-08T12:38:46.034Z,97344.09
2023-04-08T12:41:13.728Z,97346.44
2023-04-08T12:43:41.616Z,97344.56
2023-04-08T12:46:09.178Z,97350.47
2023-04-08T12:48:36.768Z,97338.38
2023-04-08T12:51:04.358Z,97347.25
2023-04-08T12:53:33.277Z,97347.84
2023-04-08T12:56:00.920Z,97343.44
2023-04-08T12:58:28.483Z,97340.59
2023-04-08T13:00:56.128Z,97336.84
2023-04-08T13:03:23.959Z,97339.94
2023-04-08T13:05:51.845Z,97342.50
2023-04-08T13:08:19.372Z,97338.59
2023-04-08T13:10:48.457Z,97341.94
2023-04-08T13:13:16.006Z,97338.28
2023-04-08T13:15:44.092Z,97337.69
2023-04-08T13:18:16.529Z,97327.63
2023-04-08T13:20:44.111Z,97312.53
2023-04-08T13:23:11.902Z,97331.69
2023-04-08T13:25:39.497Z,97333.34
2023-04-08T13:28:08.711Z,97325.91
2023-04-08T13:30:39.010Z,97328.88
2023-04-08T13:33:06.783Z,97340.13
2023-04-08T13:35:34.403Z,97354.78
2023-04-08T13:38:02.023Z,97353.03
2023-04-08T13:40:30.128Z,97357.78
2023-04-08T13:42:57.909Z,97350.09
2023-04-08T13:45:26.991Z,97352.81
2023-04-08T13:47:54.587Z,97343.69
2023-04-08T13:50:22.231Z,97344.88
2023-04-08T13:52:50.039Z,97344.78
2023-04-08T13:55:17.964Z,97340.47
2023-04-08T13:57:45.545Z,97333.47
2023-04-08T14:00:14.375Z,97332.13
2023-04-08T14:02:43.338Z,97336.13
2023-04-08T14:05:11.073Z,97328.41
2023-04-08T14:07:38.669Z,97334.38
2023-04-08T14:10:08.584Z,97335.91
2023-04-08T14:12:36.185Z,97339.59
2023-04-08T14:15:03.815Z,97338.91
2023-04-08T14:17:32.001Z,97336.75
2023-04-08T14:20:01.153Z,97324.56
2023-04-08T14:22:28.769Z,97340.09
2023-04-08T14:24:56.306Z,97349.97
2023-04-08T14:27:23.867Z,97349.25
2023-04-08T14:29:51.440Z,97346.41
2023-04-08T14:32:19.024Z,97340.50
2023-04-08T14:34:46.552Z,97330.41
2023-04-08T14:37:17.739Z,97338.78
2023-04-08T14:39:45.982Z,97352.00
2023-04-08T14:42:15.820Z,97352.56
2023-04-08T14:44:44.140Z,97348.16
2023-04-08T14:47:12.206Z,97352.13
2023-04-08T14:49:39.767Z,97348.28
2023-04-08T14:52:07.422Z,97345.22
2023-04-08T14:54:36.411Z,97350.00
2023-04-08T14:57:04.046Z,97346.94
2023-04-08T14:59:31.631Z,97339.72
2023-04-08T15:01:59.362Z,97349.50
2023-04-08T15:04:27.053Z,97342.19
2023-04-08T15:06:54.613Z,97346.59
2023-04-08T15:09:22.527Z,97349.34
2023-04-08T15:11:51.408Z,97359.38
2023-04-08T15:14:19.145Z,97358.91
2023-04-08T15:16:46.738Z,97362.31
2023-04-08T15:19:15.037Z,97364.50
2023-04-08T15:21:42.614Z,97369.28
2023-04-08T15:24:10.398Z,97365.34
2023-04-08T15:26:37.945Z,97377.03
2023-04-08T15:29:06.923Z,97369.44
2023-04-08T15:31:34.969Z,97376.22
2023-04-08T15:34:03.726Z,97381.19
2023-04-08T15:36:31.540Z,97377.88
2023-04-08T15:38:59.111Z,97377.50
2023-04-08T15:41:27.142Z,97374.53
2023-04-08T15:43:54.992Z,97372.88
2023-04-08T15:46:24.227Z,97379.00
2023-04-08T15:48:52.334Z,97374.56
2023-04-08T15:51:20.550Z,97383.16
2023-04-08T15:53:50.380Z,97382.50
2023-04-08T15:56:18.361Z,97381.00
2023-04-08T15:58:46.669Z,97389.59
2023-04-08T16:01:14.397Z,97394.97
2023-04-08T16:03:43.679Z,97399.38
2023-04-08T16:06:11.533Z,97410.81
2023-04-08T16:08:39.267Z,97395.88
2023-04-08T16:11:08.209Z,97399.09
2023-04-08T16:13:39.076Z,97413.03
2023-04-08T16:16:08.769Z,97410.91
2023-04-08T16:18:36.723Z,97411.19
2023-04-08T16:21:07.207Z,97411.63
2023-04-08T16:23:37.518Z,97407.13
2023-04-08T16:26:05.704Z,97419.81
2023-04-08T16:28:33.805Z,97414.13
2023-04-08T16:31:01.900Z,97416.22
2023-04-08T16:33:30.830Z,97427.66
2023-04-08T16:35:58.770Z,97423.38
2023-04-08T16:38:28.319Z,97435.13
2023-04-08T16:40:58.559Z,97433.38
2023-04-08T16:43:27.286Z,97430.75
2023-04-08T16:45:55.067Z,97427.16
2023-04-08T16:48:23.175Z,97438.22
2023-04-08T16:50:50.864Z,97436.25
2023-04-08T16:53:18.608Z,97449.03
2023-04-08T16:55:47.608Z,97446.16
2023-04-08T16:58:15.180Z,97439.66
2023-04-08T17:00:42.909Z,97444.78
2023-04-08T17:03:11.182Z,97438.25
2023-04-08T17:05:39.341Z,97445.56
2023-04-08T17:08:07.332Z,97449.16
2023-04-08T17:10:34.927Z,97450.00
2023-04-08T17:13:05.278Z,97456.81
2023-04-08T17:15:33.137Z,97467.97
2023-04-08T17:18:01.097Z,97468.81
2023-04-08T17:20:29.047Z,97465.38
2023-04-08T17:22:56.998Z,97469.38
2023-04-08T17:25:24.975Z,97475.38
2023-04-08T17:27:52.913Z,97470.56
2023-04-08T17:30:22.134Z,97480.94
2023-04-08T17:32:50.182Z,97484.56
2023-04-08T17:35:18.281Z,97492.16
2023-04-08T17:37:45.828Z,97497.28
2023-04-08T17:40:13.629Z,97491.47
2023-04-08T17:42:41.246Z,97497.81
2023-04-08T17:45:10.698Z,97502.41
2023-04-08T17:47:39.793Z,97501.28
2023-04-08T17:50:11.568Z,97498.78
2023-04-08T17:52:39.600Z,97508.50
2023-04-08T17:55:08.643Z,97506.28
2023-04-08T17:57:36.206Z,97508.78
2023-04-08T18:00:03.926Z,97509.88
2023-04-08T18:02:31.872Z,97518.72
2023-04-08T18:05:01.856Z,97518.19
2023-04-08T18:07:29.383Z,97515.56
2023-04-08T18:09:57.369Z,97516.38
2023-04-08T18:12:26.166Z,97524.41
2023-04-08T18:14:53.757Z,97528.53
2023-04-08T18:17:21.321Z,97530.75
2023-04-08T18:19:48.964Z,97529.09
2023-04-08T18:22:17.901Z,97543.34
2023-04-08T18:24:45.528Z,97534.78
2023-04-08T18:27:13.655Z,97541.81
2023-04-08T18:29:41.194Z,97549.69
2023-04-08T18:32:08.746Z,97564.06
2023-04-08T18:34:36.292Z,97556.16
2023-04-08T18:37:04.196Z,97559.34
2023-04-08T18:39:33.385Z,97558.38
2023-04-08T18:42:01.189Z,97560.44
2023-04-08T18:44:28.917Z,97568.03
2023-04-08T18:46:57.442Z,97556.94
2023-04-08T18:49:25.186Z,97582.69
2023-04-08T18:52:02.001Z,97573.84
2023-04-08T18:54:30.826Z,97581.44
2023-04-08T18:56:59.853Z,97579.22
2023-04-08T18:59:28.851Z,97583.50
2023-04-08T19:01:56.825Z,97595.34
2023-04-08T19:04:24.652Z,97595.59
2023-04-08T19:06:53.015Z,97586.34
2023-04-08T19:09:20.679Z,97598.50
2023-04-08T19:11:49.785Z,97598.06
2023-04-08T19:14:18.868Z,97606.22
2023-04-08T19:16:46.624Z,97600.28
2023-04-08T19:19:14.190Z,97604.69
2023-04-08T19:21:41.832Z,97612.00
2023-04-08T19:24:09.429Z,97609.22
2023-04-08T19:26:37.192Z,97611.72
2023-04-08T19:29:04.943Z,97602.47
2023-04-08T19:31:34.065Z,97613.66
2023-04-08T19:34:01.786Z,97612.25
2023-04-08T19:36:29.444Z,97606.16
2023-04-08T19:38:57.137Z,97614.03
2023-04-08T19:41:24.817Z,97612.38
2023-04-08T19:43:53.489Z,97613.78
2023-04-08T19:46:21.326Z,97622.75
2023-04-08T19:48:50.309Z,97605.59
2023-04-08T19:51:22.305Z,97624.50
2023-04-08T19:53:53.850Z,97608.09
2023-04-08T19:56:21.529Z,97624.50
2023-04-08T19:58:49.432Z,97630.69
2023-04-08T20:01:17.572Z,97625.47
2023-04-08T20:03:49.882Z,97624.09
2023-04-08T20:06:19.736Z,97632.09
2023-04-08T20:08:47.402Z,97625.72
2023-04-08T20:11:14.944Z,97626.97
2023-04-08T20:13:42.515Z,97638.22
2023-04-08T20:16:10.175Z,97624.16
2023-04-08T20:18:37.811Z,97631.31
2023-04-08T20:21:07.113Z,97637.88
2023-04-08T20:23:36.276Z,97646.25
2023-04-08T20:26:03.847Z,97642.06
2023-04-08T20:28:31.409Z,97645.34
2023-04-08T20:30:59.043Z,97646.78
2023-04-08T20:33:27.036Z,97649.06
2023-04-08T20:35:54.748Z,97650.63
2023-04-08T20:38:23.106Z,97652.63
2023-04-08T20:40:51.996Z,97646.56
2023-04-08T20:43:20.127Z,97652.03
2023-04-08T20:45:48.284Z,97649.91
2023-04-08T20:48:16.510Z,97661.22
2023-04-08T20:50:44.993Z,97650.06
2023-04-08T20:53:12.852Z,97655.16
2023-04-08T20:55:43.751Z,97652.78
